createdAt,value
2022-11-17T00:01:21.767Z,1.55
2022-11-17T00:03:49.445Z,1.40
2022-11-17T00:06:17.618Z,1.10
2022-11-17T00:08:44.188Z,1.83
2022-11-17T00:11:10.754Z,1.10
2022-11-17T00:13:55.969Z,1.63
2022-11-17T00:16:22.753Z,1.77
2022-11-17T00:19:07.853Z,1.35
2022-11-17T00:21:34.777Z,2.03
2022-11-17T00:24:01.354Z,1.30
2022-11-17T00:26:30.550Z,1.85
2022-11-17T00:29:02.128Z,1.50
2022-11-17T00:31:48.779Z,1.40
2022-11-17T00:34:23.305Z,1.95
2022-11-17T00:36:51.902Z,2.25
2022-11-17T00:39:20.738Z,1.50
2022-11-17T00:41:47.663Z,2.63
2022-11-17T00:44:14.854Z,2.80
2022-11-17T00:46:42.144Z,2.47
2022-11-17T00:49:10.715Z,2.10
2022-11-17T00:51:38.030Z,3.05
2022-11-17T00:54:06.181Z,2.10
2022-11-17T00:56:32.775Z,2.65
2022-11-17T00:58:59.795Z,1.67
2022-11-17T01:01:26.563Z,1.58
2022-11-17T01:04:03.306Z,1.83
2022-11-17T01:06:33.016Z,1.30
2022-11-17T01:09:06.212Z,1.50
2022-11-17T01:11:32.850Z,2.80
2022-11-17T01:14:00.756Z,1.70
2022-11-17T01:16:29.097Z,2.42
2022-11-17T01:18:55.786Z,2.20
2022-11-17T01:21:26.747Z,2.15
2022-11-17T01:23:55.560Z,2.67
2022-11-17T01:26:24.980Z,1.42
2022-11-17T01:28:52.543Z,2.10
2022-11-17T01:31:25.240Z,1.80
2022-11-17T01:33:52.383Z,2.45
2022-11-17T01:36:31.360Z,3.20
2022-11-17T01:38:57.880Z,3.42
2022-11-17T01:41:27.331Z,3.28
2022-11-17T01:43:59.679Z,2.30
2022-11-17T01:46:33.548Z,2.35
2022-11-17T01:49:11.209Z,3.10
2022-11-17T01:51:42.302Z,2.13
2022-11-17T01:54:11.357Z,1.60
2022-11-17T01:56:44.442Z,1.80
2022-11-17T01:59:17.863Z,2.03
2022-11-17T02:01:55.895Z,2.30
2022-11-17T02:04:30.439Z,2.33
2022-11-17T02:09:43.948Z,2.00
2022-11-17T02:12:13.246Z,1.67
2022-11-17T02:14:40.686Z,1.85
2022-11-17T02:17:14.032Z,1.90
2022-11-17T02:19:43.311Z,1.80
2022-11-17T02:22:48.280Z,1.85
2022-11-17T02:25:49.607Z,2.08
2022-11-17T02:28:25.978Z,2.03
2022-11-17T02:30:59.014Z,1.67
2022-11-17T02:33:38.772Z,1.75
2022-11-17T02:36:28.665Z,2.00
2022-11-17T02:38:59.610Z,1.77
2022-11-17T02:41:43.222Z,1.58
2022-11-17T02:44:28.750Z,1.67
2022-11-17T02:47:10.045Z,1.55
2022-11-17T02:49:41.632Z,1.77
2022-11-17T02:52:09.187Z,1.50
2022-11-17T02:54:35.860Z,1.58
2022-11-17T02:57:02.376Z,2.25
2022-11-17T02:59:37.283Z,1.40
2022-11-17T03:02:25.222Z,1.60
2022-11-17T03:05:04.460Z,1.63
2022-11-17T03:08:15.368Z,2.15
2022-11-17T03:10:59.846Z,1.63
2022-11-17T03:13:40.400Z,1.10
2022-11-17T03:16:13.272Z,2.05
2022-11-17T03:18:45.510Z,2.03
2022-11-17T03:21:23.119Z,1.80
2022-11-17T03:23:58.789Z,1.48
2022-11-17T03:26:32.441Z,1.65
2022-11-17T03:29:01.908Z,2.08
2022-11-17T03:31:31.317Z,1.23
2022-11-17T03:33:58.953Z,1.60
2022-11-17T03:36:39.664Z,1.45
2022-11-17T03:39:13.341Z,1.55
2022-11-17T03:41:44.775Z,1.70
2022-11-17T03:44:15.148Z,1.65
2022-11-17T03:46:43.919Z,1.50
2022-11-17T03:49:57.001Z,1.58
2022-11-17T03:52:25.206Z,1.00
2022-11-17T03:54:53.041Z,1.67
2022-11-17T03:58:13.155Z,1.60
2022-11-17T04:00:41.933Z,1.40
2022-11-17T04:03:08.478Z,1.10
2022-11-17T04:05:34.972Z,2.72
2022-11-17T04:08:01.482Z,1.42
2022-11-17T04:10:28.207Z,1.63
2022-11-17T04:13:13.565Z,2.83
2022-11-17T04:15:59.352Z,1.38
2022-11-17T04:18:27.028Z,1.63
2022-11-17T04:20:56.807Z,2.85
2022-11-17T04:23:24.755Z,1.75
2022-11-17T04:26:12.420Z,1.77
2022-11-17T04:28:48.973Z,1.35
2022-11-17T04:31:22.657Z,2.35
2022-11-17T04:33:53.470Z,1.40
2022-11-17T04:36:22.708Z,2.13
2022-11-17T04:38:51.337Z,2.03
2022-11-17T04:41:38.374Z,2.80
2022-11-17T04:44:06.344Z,1.77
2022-11-17T04:46:34.621Z,2.88
2022-11-17T04:49:01.909Z,2.40
2022-11-17T04:51:29.847Z,1.90
2022-11-17T04:53:57.090Z,2.20
2022-11-17T04:56:24.755Z,3.38
2022-11-17T04:58:51.371Z,2.38
2022-11-17T05:01:19.426Z,2.75
2022-11-17T05:03:53.163Z,1.98
2022-11-17T05:06:25.218Z,2.30
2022-11-17T05:08:55.914Z,2.60
2022-11-17T05:11:42.801Z,1.98
2022-11-17T05:14:09.827Z,1.90
2022-11-17T05:16:54.884Z,1.70
2022-11-17T05:19:23.756Z,2.72
2022-11-17T05:21:50.773Z,2.10
2022-11-17T05:24:18.070Z,2.47
2022-11-17T05:26:46.841Z,2.22
2022-11-17T05:29:15.562Z,2.40
2022-11-17T05:31:43.956Z,2.03
2022-11-17T05:34:15.185Z,1.90
2022-11-17T05:36:41.935Z,2.25
2022-11-17T05:39:09.478Z,2.30
2022-11-17T05:41:37.238Z,2.67
2022-11-17T05:44:04.832Z,2.13
2022-11-17T05:46:31.376Z,2.15
2022-11-17T05:48:58.296Z,2.08
2022-11-17T05:51:25.495Z,2.30
2022-11-17T05:53:52.468Z,1.50
2022-11-17T05:56:49.711Z,1.95
2022-11-17T05:59:28.458Z,1.83
2022-11-17T06:02:03.861Z,2.60
2022-11-17T06:04:31.130Z,2.25
2022-11-17T06:06:59.475Z,2.90
2022-11-17T06:09:28.755Z,2.72
2022-11-17T06:11:56.195Z,2.90
2022-11-17T06:14:25.229Z,2.85
2022-11-17T06:16:56.520Z,2.25
2022-11-17T06:19:30.463Z,2.60
2022-11-17T06:22:11.590Z,2.45
2022-11-17T06:24:39.892Z,2.92
2022-11-17T06:27:06.629Z,2.83
2022-11-17T06:29:33.202Z,3.00
2022-11-17T06:32:00.305Z,2.90
2022-11-17T06:34:27.774Z,2.80
2022-11-17T06:36:55.938Z,3.90
2022-11-17T06:39:22.401Z,3.20
2022-11-17T06:41:48.938Z,3.75
2022-11-17T06:44:15.419Z,3.25
2022-11-17T06:46:47.626Z,3.65
2022-11-17T06:49:15.447Z,3.87
2022-11-17T06:51:45.144Z,3.97
2022-11-17T06:54:14.495Z,3.15
2022-11-17T06:56:41.346Z,2.75
2022-11-17T06:59:07.917Z,3.97
2022-11-17T07:01:34.516Z,3.33
2022-11-17T07:04:01.033Z,3.50
2022-11-17T07:06:27.564Z,3.40
2022-11-17T07:08:54.286Z,3.45
2022-11-17T07:11:20.943Z,2.97
2022-11-17T07:13:47.483Z,3.67
2022-11-17T07:16:22.925Z,4.03
2022-11-17T07:18:51.587Z,3.22
2022-11-17T07:21:18.499Z,3.80
2022-11-17T07:23:45.925Z,4.88
2022-11-17T07:26:13.014Z,3.42
2022-11-17T07:28:39.633Z,3.80
2022-11-17T07:31:08.259Z,3.90
2022-11-17T07:33:35.279Z,4.35
2022-11-17T07:36:06.599Z,4.15
2022-11-17T07:38:34.777Z,3.97
2022-11-17T07:41:02.619Z,4.45
2022-11-17T07:43:29.846Z,4.35
2022-11-17T07:45:57.021Z,4.50
2022-11-17T07:48:23.564Z,3.83
2022-11-17T07:50:50.292Z,5.72
2022-11-17T07:53:16.924Z,4.30
2022-11-17T07:55:43.500Z,4.60
2022-11-17T07:58:10.108Z,4.13
2022-11-17T08:00:36.848Z,4.00
2022-11-17T08:03:04.929Z,5.65
2022-11-17T08:05:41.825Z,4.40
2022-11-17T08:08:10.271Z,4.95
2022-11-17T08:10:36.960Z,4.88
2022-11-17T08:13:03.923Z,5.40
2022-11-17T08:15:31.749Z,5.22
2022-11-17T08:18:01.217Z,5.10
2022-11-17T08:20:29.466Z,5.65
2022-11-17T08:22:56.811Z,4.82
2022-11-17T08:25:26.389Z,4.88
2022-11-17T08:27:57.940Z,4.40
2022-11-17T08:30:26.325Z,5.63
2022-11-17T08:32:54.542Z,5.43
2022-11-17T08:35:23.651Z,6.07
2022-11-17T08:37:50.322Z,6.25
2022-11-17T08:40:18.316Z,5.50
2022-11-17T08:42:45.411Z,5.65
2022-11-17T08:45:12.655Z,6.18
2022-11-17T08:47:39.260Z,5.40
2022-11-17T08:50:06.763Z,5.85
2022-11-17T08:52:33.761Z,7.35
2022-11-17T08:55:00.645Z,5.25
2022-11-17T08:57:29.907Z,5.47
2022-11-17T08:59:56.627Z,6.10
2022-11-17T09:02:23.279Z,5.15
2022-11-17T09:04:50.629Z,5.30
2022-11-17T09:07:17.833Z,6.20
2022-11-17T09:09:46.178Z,6.53
2022-11-17T09:12:12.784Z,4.95
2022-11-17T09:14:39.500Z,6.53
2022-11-17T09:17:06.366Z,5.22
2022-11-17T09:19:33.724Z,5.43
2022-11-17T09:22:00.273Z,4.90
2022-11-17T09:24:26.971Z,5.68
2022-11-17T09:26:54.730Z,5.22
2022-11-17T09:29:21.790Z,5.65
2022-11-17T09:31:48.371Z,6.20
2022-11-17T09:34:15.524Z,6.28
2022-11-17T09:36:42.333Z,5.97
2022-11-17T09:39:09.088Z,5.32
2022-11-17T09:41:46.761Z,6.47
2022-11-17T09:44:31.165Z,5.22
2022-11-17T09:47:16.513Z,6.50
2022-11-17T09:49:58.647Z,6.10
2022-11-17T09:52:32.425Z,4.70
2022-11-17T09:55:07.802Z,5.20
2022-11-17T09:57:41.178Z,5.15
2022-11-17T10:00:10.903Z,5.28
2022-11-17T10:02:37.531Z,6.43
2022-11-17T10:05:04.338Z,5.40
2022-11-17T10:07:34.996Z,6.43
2022-11-17T10:10:03.571Z,6.38
2022-11-17T10:12:41.786Z,6.65
2022-11-17T10:15:24.325Z,5.15
2022-11-17T10:17:50.933Z,5.05
2022-11-17T10:20:20.924Z,6.85
2022-11-17T10:22:48.188Z,6.65
2022-11-17T10:25:23.957Z,5.90
2022-11-17T10:27:54.102Z,5.93
2022-11-17T10:30:24.308Z,5.82
2022-11-17T10:32:52.056Z,5.75
2022-11-17T10:35:19.917Z,5.38
2022-11-17T10:37:55.439Z,4.78
2022-11-17T10:40:26.171Z,5.32
2022-11-17T10:43:04.962Z,6.30
2022-11-17T10:45:32.535Z,5.72
2022-11-17T10:48:32.912Z,6.00
2022-11-17T10:51:11.184Z,4.78
2022-11-17T10:53:45.546Z,6.25
2022-11-17T10:56:21.665Z,5.97
2022-11-17T10:59:09.628Z,5.85
2022-11-17T11:01:39.161Z,6.13
2022-11-17T11:04:08.053Z,7.38
2022-11-17T11:06:35.610Z,6.22
2022-11-17T11:09:10.521Z,6.25
2022-11-17T11:11:41.538Z,5.72
2022-11-17T11:14:33.471Z,5.53
2022-11-17T11:17:10.615Z,6.30
2022-11-17T11:19:37.950Z,5.32
2022-11-17T11:22:33.872Z,5.53
2022-11-17T11:25:12.530Z,6.50
2022-11-17T11:27:47.955Z,6.63
2022-11-17T11:30:19.389Z,6.30
2022-11-17T11:33:01.201Z,5.18
2022-11-17T11:35:34.626Z,5.70
2022-11-17T11:38:23.391Z,5.40
2022-11-17T11:41:07.578Z,6.40
2022-11-17T11:43:59.969Z,6.07
2022-11-17T11:46:55.725Z,5.65
2022-11-17T11:49:22.195Z,6.90
2022-11-17T11:51:50.409Z,5.78
2022-11-17T11:54:30.878Z,6.47
2022-11-17T11:56:57.674Z,5.97
2022-11-17T11:59:50.722Z,7.55
2022-11-17T12:02:43.544Z,5.63
2022-11-17T12:05:19.229Z,5.55
2022-11-17T12:08:11.077Z,5.85
2022-11-17T12:11:31.422Z,5.63
2022-11-17T12:13:59.684Z,6.07
2022-11-17T12:16:36.161Z,6.63
2022-11-17T12:19:23.088Z,6.03
2022-11-17T12:21:55.379Z,7.20
2022-11-17T12:24:33.500Z,4.97
2022-11-17T12:27:34.896Z,5.43
2022-11-17T12:30:04.293Z,5.97
2022-11-17T12:32:49.141Z,6.82
2022-11-17T12:35:33.635Z,5.45
2022-11-17T12:38:23.501Z,5.40
2022-11-17T12:40:51.982Z,6.20
2022-11-17T12:43:25.353Z,5.75
2022-11-17T12:46:25.383Z,6.40
2022-11-17T12:49:03.237Z,5.75
2022-11-17T12:51:56.347Z,4.80
2022-11-17T12:54:47.845Z,6.07
2022-11-17T12:57:26.399Z,5.75
2022-11-17T13:00:23.175Z,6.20
2022-11-17T13:03:15.348Z,5.70
2022-11-17T13:05:42.316Z,4.85
2022-11-17T13:08:22.183Z,5.75
2022-11-17T13:10:49.346Z,5.03
2022-11-17T13:13:23.592Z,4.43
2022-11-17T13:18:36.457Z,4.60
2022-11-17T13:21:04.055Z,4.65
2022-11-17T13:23:32.878Z,5.50
2022-11-17T13:26:20.020Z,5.20
2022-11-17T13:28:47.770Z,4.60
2022-11-17T13:31:24.080Z,5.07
2022-11-17T13:34:04.588Z,5.80
2022-11-17T13:36:31.189Z,5.03
2022-11-17T13:39:00.520Z,4.93
2022-11-17T13:41:38.236Z,5.22
2022-11-17T13:44:08.553Z,5.32
2022-11-17T13:46:36.170Z,5.18
2022-11-17T13:49:35.703Z,5.95
2022-11-17T13:52:03.786Z,4.43
2022-11-17T13:54:30.751Z,4.32
2022-11-17T13:57:06.122Z,4.25
2022-11-17T13:59:35.299Z,4.00
2022-11-17T14:02:17.316Z,5.05
2022-11-17T14:05:14.214Z,5.00
2022-11-17T14:07:42.564Z,5.15
2022-11-17T14:10:12.930Z,5.40
2022-11-17T14:12:39.668Z,4.82
2022-11-17T14:15:24.523Z,4.32
2022-11-17T14:17:53.356Z,5.80
2022-11-17T14:20:25.883Z,5.05
2022-11-17T14:23:10.461Z,4.28
2022-11-17T14:28:15.805Z,6.28
2022-11-17T14:30:42.454Z,6.15
2022-11-17T14:33:13.347Z,5.10
2022-11-17T14:35:40.700Z,5.40
2022-11-17T14:38:10.496Z,5.03
2022-11-17T14:40:37.045Z,5.82
2022-11-17T14:43:03.576Z,5.13
2022-11-17T14:45:30.792Z,5.45
2022-11-17T14:47:57.347Z,4.70
2022-11-17T14:50:23.848Z,4.28
2022-11-17T14:52:50.413Z,5.97
2022-11-17T14:55:17.100Z,4.95
2022-11-17T14:57:43.786Z,6.32
2022-11-17T15:00:15.829Z,5.53
2022-11-17T15:02:45.941Z,5.10
2022-11-17T15:05:12.887Z,4.20
2022-11-17T15:07:39.515Z,3.95
2022-11-17T15:10:07.257Z,4.82
2022-11-17T15:12:34.317Z,4.55
2022-11-17T15:15:00.820Z,4.07
2022-11-17T15:17:28.034Z,4.15
2022-11-17T15:19:55.222Z,4.07
2022-11-17T15:22:21.767Z,4.38
2022-11-17T15:24:48.306Z,4.28
2022-11-17T15:27:15.277Z,4.60
2022-11-17T15:29:41.966Z,4.38
2022-11-17T15:32:08.491Z,3.70
2022-11-17T15:34:38.052Z,4.38
2022-11-17T15:37:05.456Z,4.20
2022-11-17T15:39:31.957Z,4.50
2022-11-17T15:41:58.509Z,4.43
2022-11-17T15:44:25.114Z,3.25
2022-11-17T15:46:51.974Z,4.65
2022-11-17T15:49:18.940Z,4.40
2022-11-17T15:51:45.676Z,4.13
2022-11-17T15:54:19.639Z,4.13
2022-11-17T15:56:47.369Z,5.10
2022-11-17T15:59:14.603Z,4.85
2022-11-17T16:01:41.691Z,4.95
2022-11-17T16:04:10.706Z,4.18
2022-11-17T16:06:39.299Z,4.60
2022-11-17T16:09:09.203Z,4.38
2022-11-17T16:11:36.587Z,5.68
2022-11-17T16:14:04.200Z,3.97
2022-11-17T16:16:33.240Z,5.07
2022-11-17T16:19:00.044Z,4.80
2022-11-17T16:21:27.057Z,3.58
2022-11-17T16:23:56.442Z,3.33
2022-11-17T16:26:26.177Z,3.05
2022-11-17T16:28:57.335Z,3.15
2022-11-17T16:31:25.607Z,3.15
2022-11-17T16:33:55.851Z,3.13
2022-11-17T16:36:24.630Z,3.30
2022-11-17T16:39:01.964Z,4.30
2022-11-17T16:41:32.390Z,3.55
2022-11-17T16:43:59.804Z,3.42
2022-11-17T16:46:29.208Z,3.60
2022-11-17T16:48:57.050Z,3.35
2022-11-17T16:51:23.710Z,2.88
2022-11-17T16:53:58.499Z,3.00
2022-11-17T16:56:25.216Z,3.13
2022-11-17T16:58:52.245Z,2.47
2022-11-17T17:01:21.698Z,3.40
2022-11-17T17:03:48.275Z,3.47
2022-11-17T17:06:17.604Z,3.65
2022-11-17T17:08:44.818Z,5.05
2022-11-17T17:11:15.878Z,3.95
2022-11-17T17:13:42.755Z,4.32
2022-11-17T17:16:13.799Z,4.25
2022-11-17T17:18:41.112Z,5.18
2022-11-17T17:21:12.915Z,4.22
2022-11-17T17:23:39.407Z,4.13
2022-11-17T17:26:16.655Z,4.53
2022-11-17T17:28:47.326Z,5.05
2022-11-17T17:31:21.076Z,5.15
2022-11-17T17:33:50.645Z,4.55
2022-11-17T17:36:20.260Z,4.28
2022-11-17T17:38:53.293Z,4.25
2022-11-17T17:41:23.367Z,3.60
2022-11-17T17:43:56.451Z,4.03
2022-11-17T17:46:22.947Z,4.60
2022-11-17T17:48:49.559Z,5.13
2022-11-17T17:51:23.832Z,6.28
2022-11-17T17:53:51.476Z,4.75
2022-11-17T17:56:20.318Z,5.65
2022-11-17T17:58:48.865Z,4.47
2022-11-17T18:01:15.372Z,4.88
2022-11-17T18:03:45.680Z,5.07
2022-11-17T18:06:13.321Z,4.53
2022-11-17T18:08:39.961Z,4.80
2022-11-17T18:11:09.945Z,4.10
2022-11-17T18:13:38.972Z,5.97
2022-11-17T18:16:10.544Z,6.28
2022-11-17T18:18:37.775Z,5.82
2022-11-17T18:21:15.134Z,5.68
2022-11-17T18:23:44.718Z,6.28
2022-11-17T18:26:23.320Z,6.45
2022-11-17T18:28:55.356Z,8.18
2022-11-17T18:31:24.145Z,8.77
2022-11-17T18:33:52.557Z,6.55
2022-11-17T18:36:20.199Z,6.32
2022-11-17T18:38:47.613Z,8.40
2022-11-17T18:41:16.526Z,6.93
2022-11-17T18:43:44.126Z,7.25
2022-11-17T18:46:16.171Z,6.80
2022-11-17T18:48:44.427Z,6.38
2022-11-17T18:51:21.429Z,6.10
2022-11-17T18:53:53.172Z,6.70
2022-11-17T18:56:28.635Z,5.78
2022-11-17T18:58:55.378Z,5.28
2022-11-17T19:01:24.080Z,4.38
2022-11-17T19:03:53.540Z,5.50
2022-11-17T19:06:22.752Z,3.90
2022-11-17T19:08:50.174Z,3.08
2022-11-17T19:11:18.216Z,3.05
2022-11-17T19:13:45.856Z,2.92
2022-11-17T19:16:24.285Z,4.03
2022-11-17T19:18:53.479Z,2.88
2022-11-17T19:21:26.067Z,2.17
2022-11-17T19:23:54.655Z,2.72
2022-11-17T19:26:29.989Z,1.70
2022-11-17T19:28:58.182Z,2.08
2022-11-17T19:31:25.571Z,1.98
2022-11-17T19:33:53.160Z,1.98
2022-11-17T19:36:25.063Z,2.63
2022-11-17T19:38:53.574Z,1.63
2022-11-17T19:41:26.802Z,2.03
2022-11-17T19:43:58.105Z,1.98
2022-11-17T19:46:26.422Z,2.67
2022-11-17T19:48:53.084Z,2.33
2022-11-17T19:51:25.132Z,2.45
2022-11-17T19:53:54.201Z,2.38
2022-11-17T19:56:22.203Z,1.92
2022-11-17T19:58:50.325Z,1.92
2022-11-17T20:01:20.412Z,2.17
2022-11-17T20:03:47.645Z,2.10
2022-11-17T20:06:17.264Z,3.90
2022-11-17T20:08:44.223Z,2.45
2022-11-17T20:11:16.740Z,1.95
2022-11-17T20:13:44.090Z,3.10
2022-11-17T20:16:16.477Z,2.60
2022-11-17T20:18:44.715Z,2.03
2022-11-17T20:21:14.034Z,2.92
2022-11-17T20:23:41.992Z,2.45
2022-11-17T20:26:12.706Z,2.25
2022-11-17T20:28:39.378Z,2.95
2022-11-17T20:31:13.507Z,2.55
2022-11-17T20:33:41.556Z,2.03
2022-11-17T20:36:10.906Z,2.10
2022-11-17T20:38:37.616Z,2.15
2022-11-17T20:41:04.978Z,2.78
2022-11-17T20:43:32.567Z,2.55
2022-11-17T20:45:59.232Z,2.80
2022-11-17T20:48:27.455Z,2.42
2022-11-17T20:51:01.525Z,3.10
2022-11-17T20:53:28.921Z,2.70
2022-11-17T20:55:57.610Z,2.60
2022-11-17T20:58:25.299Z,2.55
2022-11-17T21:00:52.738Z,2.65
2022-11-17T21:03:20.426Z,1.50
2022-11-17T21:05:59.199Z,2.30
2022-11-17T21:08:37.322Z,2.10
2022-11-17T21:11:09.239Z,3.97
2022-11-17T21:13:37.226Z,2.92
2022-11-17T21:16:14.957Z,2.58
2022-11-17T21:18:48.500Z,2.22
2022-11-17T21:21:15.723Z,2.10
2022-11-17T21:23:43.997Z,1.60
2022-11-17T21:26:13.066Z,1.60
2022-11-17T21:28:41.053Z,2.00
2022-11-17T21:31:14.381Z,2.47
2022-11-17T21:33:41.698Z,1.58
2022-11-17T21:36:16.402Z,1.45
2022-11-17T21:38:44.877Z,2.22
2022-11-17T21:41:16.271Z,2.15
2022-11-17T21:43:44.090Z,1.80
2022-11-17T21:46:14.665Z,2.10
2022-11-17T21:48:41.942Z,1.77
2022-11-17T21:51:15.906Z,1.65
2022-11-17T21:53:43.186Z,2.28
2022-11-17T21:56:10.240Z,2.53
2022-11-17T21:58:37.231Z,2.20
2022-11-17T22:01:12.950Z,2.33
2022-11-17T22:03:41.183Z,1.70
2022-11-17T22:06:14.488Z,1.95
2022-11-17T22:08:43.044Z,4.07
2022-11-17T22:11:13.254Z,2.83
2022-11-17T22:13:40.631Z,1.95
2022-11-17T22:16:13.469Z,2.03
2022-11-17T22:18:41.034Z,1.85
2022-11-17T22:21:08.274Z,1.42
2022-11-17T22:23:35.473Z,1.25
2022-11-17T22:26:04.594Z,2.20
2022-11-17T22:28:31.359Z,1.27
2022-11-17T22:30:58.508Z,1.45
2022-11-17T22:33:25.382Z,1.10
2022-11-17T22:35:52.111Z,1.67
2022-11-17T22:38:18.801Z,1.70
2022-11-17T22:40:45.311Z,2.72
2022-11-17T22:43:15.417Z,1.38
2022-11-17T22:45:42.573Z,1.15
2022-11-17T22:48:09.402Z,1.58
2022-11-17T22:50:36.370Z,1.35
2022-11-17T22:53:03.352Z,1.40
2022-11-17T22:55:32.736Z,1.10
2022-11-17T22:57:59.485Z,1.52
2022-11-17T23:00:26.347Z,2.25
2022-11-17T23:02:52.870Z,1.60
2022-11-17T23:05:19.585Z,1.33
2022-11-17T23:07:46.294Z,1.30
2022-11-17T23:10:13.316Z,1.30
2022-11-17T23:12:40.382Z,1.20
2022-11-17T23:15:07.969Z,1.75
2022-11-17T23:17:34.856Z,1.25
2022-11-17T23:20:01.971Z,1.13
2022-11-17T23:22:28.539Z,1.40
2022-11-17T23:24:55.075Z,1.00
2022-11-17T23:27:21.535Z,1.42
2022-11-17T23:29:48.116Z,1.60
2022-11-17T23:32:14.669Z,1.10
2022-11-17T23:34:41.296Z,1.45
2022-11-17T23:37:07.886Z,1.13
2022-11-17T23:39:34.432Z,1.10
2022-11-17T23:42:01.143Z,1.38
2022-11-17T23:44:28.268Z,1.00
2022-11-17T23:46:54.815Z,1.40
2022-11-17T23:49:21.415Z,1.63
2022-11-17T23:51:47.977Z,0.90
2022-11-17T23:54:14.667Z,1.40
2022-11-17T23:56:41.291Z,1.20
2022-11-17T23:59:08.360Z,0.85
